Los Angeles - LAX

The City of Angels

The Los Angeles International Airport is the largest West Coast hub in the United States and acts as a key connection point for flights coming to and from destinations throughout and across the Pacific Ocean. American Airlines operates enough flights out of this mega hub to make up around 25% of the total passenger share.

LAX Based Pilots: 9   Miles to LAX: 202739
Flights from LAX: 220   Total Hours: 1062.27
Routes using LAX: 693   From LAX: 549.95
Total Miles: 425916   Hours To LAX: 512.32
Miles from LAX: 223177   LAX Charts: Click Here
VATSIM METAR: KLAX 012106Z 25008KT 1/2SM R25L/P6000FT FG SCT000 BKN004 15/13 A3004 RMK AO2 VIS 1/4V1 FG SCT000 T01500128
 
         
View More: Click Here
   

 

Earn Your Wings

Interested in joining our LAX hub? Hover for more!

Your journey starts here. Your journey starts now. A whole new experience is at your fingertips.

Like what you see and ready to join the team?

A rewarding and memorable virtual airline experience awaits!